createdAt,value
2022-09-28T00:28:23.880Z,100.00
2022-09-28T00:55:38.714Z,100.00
2022-09-28T01:24:48.772Z,100.00
2022-09-28T01:38:41.470Z,100.00
2022-09-28T01:42:46.435Z,100.00
2022-09-28T01:46:02.956Z,100.00
2022-09-28T02:16:23.188Z,100.00
2022-09-28T02:23:42.330Z,100.00
2022-09-28T02:26:28.832Z,100.00
2022-09-28T02:40:40.652Z,100.00
2022-09-28T02:45:42.735Z,100.00
2022-09-28T03:08:03.421Z,100.00
2022-09-28T03:15:33.579Z,100.00
2022-09-28T03:21:57.322Z,100.00
2022-09-28T03:24:22.671Z,100.00
2022-09-28T03:32:52.997Z,100.00
2022-09-28T03:36:35.273Z,100.00
2022-09-28T03:42:42.583Z,100.00
2022-09-28T03:45:07.625Z,100.00
2022-09-28T03:48:21.734Z,100.00
2022-09-28T03:55:24.558Z,100.00
2022-09-28T03:58:28.998Z,100.00
2022-09-28T04:01:44.441Z,100.00
2022-09-28T04:12:47.061Z,100.00
2022-09-28T04:16:44.727Z,100.00
2022-09-28T04:26:14.015Z,100.00
2022-09-28T04:44:47.347Z,100.00
2022-09-28T05:13:42.089Z,100.00
2022-09-28T05:16:10.386Z,100.00
2022-09-28T05:18:37.491Z,100.00
2022-09-28T05:21:09.975Z,100.00
2022-09-28T05:23:36.887Z,100.00
2022-09-28T05:26:04.324Z,100.00
2022-09-28T05:28:33.607Z,100.00
2022-09-28T05:31:02.943Z,100.00
2022-09-28T05:33:31.949Z,100.00
2022-09-28T05:36:01.532Z,100.00
2022-09-28T05:38:30.079Z,100.00
2022-09-28T05:40:57.625Z,100.00
2022-09-28T05:43:24.847Z,100.00
2022-09-28T05:45:55.674Z,100.00
2022-09-28T05:48:23.281Z,100.00
2022-09-28T05:50:53.259Z,100.00
2022-09-28T05:53:20.440Z,100.00
2022-09-28T05:55:48.137Z,100.00
2022-09-28T05:58:15.715Z,100.00
2022-09-28T06:00:43.339Z,100.00
2022-09-28T06:03:14.733Z,100.00
2022-09-28T06:05:41.936Z,100.00
2022-09-28T06:08:12.874Z,100.00
2022-09-28T06:10:40.922Z,99.41
2022-09-28T06:13:08.562Z,97.29
2022-09-28T06:15:36.926Z,98.14
2022-09-28T06:18:07.618Z,99.37
2022-09-28T06:20:37.698Z,99.77
2022-09-28T06:23:04.842Z,100.00
2022-09-28T06:25:32.599Z,99.66
2022-09-28T06:28:11.982Z,98.64
2022-09-28T06:30:39.538Z,99.38
2022-09-28T06:33:10.000Z,99.08
2022-09-28T06:35:37.305Z,97.08
2022-09-28T06:38:04.720Z,97.29
2022-09-28T06:40:32.081Z,96.56
2022-09-28T06:43:02.795Z,95.76
2022-09-28T06:45:31.067Z,94.73
2022-09-28T06:48:00.529Z,93.30
2022-09-28T06:50:33.910Z,83.96
2022-09-28T06:53:01.829Z,85.85
2022-09-28T06:55:29.675Z,87.53
2022-09-28T06:58:07.876Z,87.90
2022-09-28T07:00:37.375Z,89.04
2022-09-28T07:03:07.356Z,90.11
2022-09-28T07:05:37.146Z,90.20
2022-09-28T07:08:14.751Z,90.23
2022-09-28T07:10:49.933Z,90.03
2022-09-28T07:13:45.686Z,90.97
2022-09-28T07:16:04.591Z,89.50
2022-09-28T07:18:31.554Z,90.23
2022-09-28T07:20:59.680Z,88.94
2022-09-28T07:23:28.563Z,89.07
2022-09-28T07:25:55.626Z,88.99
2022-09-28T07:28:22.561Z,90.76
2022-09-28T07:30:49.573Z,90.22
2022-09-28T07:33:17.569Z,87.64
2022-09-28T07:35:52.914Z,86.45
2022-09-28T07:38:20.066Z,84.56
2022-09-28T07:41:05.898Z,83.04
2022-09-28T07:43:33.112Z,82.66
2022-09-28T07:46:00.105Z,81.92
2022-09-28T07:48:27.108Z,82.68
2022-09-28T07:51:00.057Z,84.25
2022-09-28T07:53:27.259Z,85.70
2022-09-28T08:28:46.790Z,75.88
2022-09-28T08:31:14.255Z,76.48
2022-09-28T08:33:42.196Z,75.84
2022-09-28T08:36:10.761Z,74.18
2022-09-28T08:38:37.905Z,74.19
2022-09-28T08:41:40.269Z,73.57
2022-09-28T08:44:24.156Z,71.36
2022-09-28T08:47:02.059Z,67.98
2022-09-28T08:49:39.953Z,64.75
2022-09-28T08:52:18.815Z,64.40
2022-09-28T08:55:06.396Z,61.43
2022-09-28T08:57:55.841Z,62.45
2022-09-28T09:00:51.020Z,63.31
2022-09-28T09:03:23.835Z,62.10
2022-09-28T09:06:22.026Z,60.44
2022-09-28T09:09:23.081Z,59.94
2022-09-28T09:12:05.683Z,56.81
2022-09-28T09:14:57.156Z,56.98
2022-09-28T09:18:03.471Z,55.39
2022-09-28T09:20:58.619Z,55.74
2022-09-28T09:23:49.789Z,53.84
2022-09-28T09:26:39.643Z,54.40
2022-09-28T09:29:37.520Z,52.97
2022-09-28T09:32:54.272Z,50.93
2022-09-28T09:36:14.220Z,50.31
2022-09-28T09:39:27.778Z,49.74
2022-09-28T09:42:11.021Z,50.79
2022-09-28T09:45:06.247Z,47.76
2022-09-28T09:47:43.225Z,47.46
2022-09-28T09:50:33.555Z,46.79
2022-09-28T09:53:26.601Z,45.21
2022-09-28T09:56:01.277Z,44.78
2022-09-28T09:58:44.755Z,43.58
2022-09-28T10:01:15.900Z,43.56
2022-09-28T10:03:48.672Z,42.64
2022-09-28T10:06:27.508Z,43.96
2022-09-28T10:09:26.634Z,43.83
2022-09-28T10:11:54.438Z,42.84
2022-09-28T10:14:24.423Z,42.33
2022-09-28T10:16:58.106Z,41.57
2022-09-28T10:19:33.937Z,42.76
2022-09-28T10:22:05.884Z,42.67
2022-09-28T10:47:19.109Z,48.78
2022-09-28T10:49:50.768Z,49.36
2022-09-28T10:52:42.646Z,49.92
2022-09-28T10:55:32.290Z,50.52
2022-09-28T10:58:00.509Z,51.94
2022-09-28T11:00:41.775Z,52.00
2022-09-28T11:03:27.426Z,51.97
2022-09-28T11:05:56.484Z,52.41
2022-09-28T11:08:34.263Z,52.28
2022-09-28T11:11:22.174Z,52.09
2022-09-28T11:14:01.227Z,51.60
2022-09-28T11:16:38.950Z,50.21
2022-09-28T11:19:31.905Z,48.74
2022-09-28T11:21:58.851Z,48.66
2022-09-28T11:24:27.134Z,47.96
2022-09-28T11:27:00.279Z,49.16
2022-09-28T11:29:41.802Z,48.67
2022-09-28T11:32:15.544Z,48.36
2022-09-28T11:34:58.979Z,48.42
2022-09-28T11:37:50.671Z,47.66
2022-09-28T11:40:26.536Z,48.07
2022-09-28T11:43:36.109Z,48.29
2022-09-28T11:46:26.295Z,49.38
2022-09-28T11:49:14.572Z,50.14
2022-09-28T11:51:46.024Z,50.30
2022-09-28T11:54:33.699Z,50.81
2022-09-28T11:57:05.201Z,51.37
2022-09-28T11:59:43.143Z,50.50
2022-09-28T12:02:44.138Z,50.19
2022-09-28T12:05:25.122Z,49.85
2022-09-28T12:08:08.605Z,50.90
2022-09-28T12:10:48.895Z,50.23
2022-09-28T12:13:26.681Z,51.02
2022-09-28T12:16:27.643Z,51.27
2022-09-28T12:19:15.395Z,50.98
2022-09-28T12:21:55.106Z,52.40
2022-09-28T12:24:38.570Z,52.48
2022-09-28T12:27:33.480Z,52.90
2022-09-28T12:30:19.441Z,53.17
2022-09-28T12:33:12.355Z,54.00
2022-09-28T12:36:16.718Z,54.03
2022-09-28T12:39:17.987Z,55.68
2022-09-28T12:42:15.103Z,56.14
2022-09-28T12:45:21.707Z,54.37
2022-09-28T12:48:13.933Z,55.61
2022-09-28T12:51:07.968Z,55.63
2022-09-28T12:53:53.173Z,56.99
2022-09-28T12:56:37.706Z,55.73
2022-09-28T12:59:32.274Z,56.07
2022-09-28T13:02:22.749Z,56.21
2022-09-28T13:05:13.629Z,56.51
2022-09-28T13:08:16.752Z,56.44
2022-09-28T13:11:22.869Z,56.25
2022-09-28T13:14:35.869Z,55.13
2022-09-28T13:17:32.671Z,56.47
2022-09-28T13:20:21.110Z,56.40
2022-09-28T13:23:06.554Z,55.81
2022-09-28T13:25:36.218Z,55.54
2022-09-28T13:28:05.945Z,56.79
2022-09-28T13:30:40.327Z,57.35
2022-09-28T13:33:14.051Z,57.08
2022-09-28T13:35:44.287Z,57.10
2022-09-28T13:38:17.497Z,57.31
2022-09-28T13:41:06.687Z,57.60
2022-09-28T13:44:04.756Z,57.82
2022-09-28T13:47:06.387Z,57.48
2022-09-28T13:50:00.532Z,57.83
2022-09-28T13:52:48.294Z,57.10
2022-09-28T13:55:25.396Z,57.24
2022-09-28T13:58:35.401Z,56.89
2022-09-28T14:01:16.248Z,55.63
2022-09-28T14:04:21.983Z,56.17
2022-09-28T14:07:08.633Z,56.33
2022-09-28T14:10:07.961Z,56.43
2022-09-28T14:12:34.766Z,56.49
2022-09-28T14:15:03.131Z,57.20
2022-09-28T14:18:04.388Z,56.80
2022-09-28T14:20:31.824Z,55.63
2022-09-28T14:23:58.949Z,55.67
2022-09-28T14:27:03.413Z,57.25
2022-09-28T14:29:36.217Z,57.58
2022-09-28T14:32:25.087Z,57.63
2022-09-28T14:35:07.438Z,58.43
2022-09-28T14:37:58.328Z,58.99
2022-09-28T14:41:03.577Z,59.34
2022-09-28T14:43:43.666Z,60.35
2022-09-28T14:46:11.320Z,60.61
2022-09-28T14:49:01.723Z,60.69
2022-09-28T14:51:31.727Z,60.77
2022-09-28T14:54:15.143Z,60.77
2022-09-28T14:56:54.349Z,61.82
2022-09-28T14:59:38.978Z,59.72
2022-09-28T15:02:11.555Z,58.96
2022-09-28T15:04:45.902Z,59.93
2022-09-28T15:07:29.747Z,58.35
2022-09-28T15:09:58.817Z,58.44
2022-09-28T15:12:31.241Z,58.40
2022-09-28T15:15:05.557Z,58.49
2022-09-28T15:17:39.712Z,57.93
2022-09-28T15:20:23.871Z,58.72
2022-09-28T15:22:57.305Z,58.43
2022-09-28T15:25:31.754Z,59.03
2022-09-28T15:28:13.191Z,58.22
2022-09-28T15:30:40.427Z,58.34
2022-09-28T15:33:53.848Z,59.33
2022-09-28T15:36:37.288Z,59.79
2022-09-28T15:39:21.847Z,58.81
2022-09-28T15:41:51.076Z,59.01
2022-09-28T15:44:30.182Z,59.32
2022-09-28T15:47:25.221Z,59.95
2022-09-28T15:50:04.423Z,61.22
2022-09-28T15:52:52.830Z,61.27
2022-09-28T15:55:42.404Z,60.37
2022-09-28T15:58:21.556Z,60.38
2022-09-28T16:01:23.102Z,61.03
2022-09-28T16:03:50.060Z,61.41
2022-09-28T16:06:16.994Z,61.76
2022-09-28T16:08:45.819Z,61.86
2022-09-28T16:11:35.606Z,62.01
2022-09-28T16:14:21.851Z,61.56
2022-09-28T16:16:52.247Z,61.96
2022-09-28T16:19:31.350Z,61.94
2022-09-28T16:22:07.546Z,61.46
2022-09-28T16:24:38.908Z,60.87
2022-09-28T16:27:30.571Z,61.05
2022-09-28T16:30:24.451Z,61.76
2022-09-28T16:33:01.952Z,62.33
2022-09-28T16:35:49.406Z,62.63
2022-09-28T16:38:18.965Z,63.17
2022-09-28T16:40:55.228Z,63.65
2022-09-28T16:43:27.707Z,63.73
2022-09-28T16:46:00.953Z,63.67
2022-09-28T16:48:30.695Z,64.32
2022-09-28T16:50:58.760Z,64.35
2022-09-28T16:53:45.392Z,65.04
2022-09-28T16:56:12.812Z,65.70
2022-09-28T16:58:39.853Z,66.37
2022-09-28T17:01:09.974Z,65.09
2022-09-28T17:03:37.098Z,65.31
2022-09-28T17:06:06.251Z,64.98
2022-09-28T17:08:33.908Z,65.59
2022-09-28T17:11:24.092Z,64.75
2022-09-28T17:13:51.867Z,65.40
2022-09-28T17:16:37.265Z,66.01
2022-09-28T17:19:25.113Z,66.07
2022-09-28T17:21:53.396Z,66.21
2022-09-28T17:24:20.907Z,67.39
2022-09-28T17:26:50.995Z,67.72
2022-09-28T17:29:19.210Z,67.64
2022-09-28T17:31:47.798Z,67.74
2022-09-28T17:34:16.194Z,67.27
2022-09-28T17:36:44.747Z,67.91
2022-09-28T17:39:17.578Z,68.77
2022-09-28T17:41:45.125Z,68.92
2022-09-28T17:44:15.091Z,69.31
2022-09-28T17:46:47.427Z,69.61
2022-09-28T17:49:15.338Z,70.66
2022-09-28T17:51:42.345Z,71.06
2022-09-28T17:54:09.343Z,73.10
2022-09-28T17:56:36.915Z,73.79
2022-09-28T17:59:07.284Z,71.03
2022-09-28T18:01:38.926Z,71.93
2022-09-28T18:04:09.093Z,72.34
2022-09-28T18:06:37.359Z,74.08
2022-09-28T18:09:05.462Z,74.32
2022-09-28T18:11:33.670Z,77.11
2022-09-28T18:14:00.946Z,76.74
2022-09-28T18:16:28.934Z,78.45
2022-09-28T18:18:56.343Z,78.16
2022-09-28T18:21:23.345Z,79.30
2022-09-28T18:23:50.625Z,81.14
2022-09-28T18:26:21.210Z,79.06
2022-09-28T18:28:48.267Z,80.47
2022-09-28T18:31:15.926Z,81.71
2022-09-28T18:33:43.419Z,82.17
2022-09-28T18:36:10.747Z,84.00
2022-09-28T18:38:38.734Z,83.97
2022-09-28T18:41:15.753Z,85.29
2022-09-28T18:43:49.343Z,85.54
2022-09-28T18:46:20.522Z,86.91
2022-09-28T18:48:47.856Z,86.49
2022-09-28T18:51:15.259Z,87.17
2022-09-28T18:53:42.418Z,86.32
2022-09-28T18:56:13.042Z,87.00
2022-09-28T18:58:42.004Z,86.44
2022-09-28T19:04:04.601Z,87.50
2022-09-28T19:06:34.324Z,87.88
2022-09-28T19:09:01.477Z,87.71
2022-09-28T19:11:28.942Z,88.93
2022-09-28T19:13:56.610Z,89.00
2022-09-28T19:16:29.358Z,88.06
2022-09-28T19:18:58.003Z,88.74
2022-09-28T19:21:27.124Z,89.98
2022-09-28T19:23:55.532Z,89.91
2022-09-28T19:26:27.347Z,89.04
2022-09-28T19:28:56.422Z,88.82
2022-09-28T19:31:24.467Z,89.14
2022-09-28T19:33:51.590Z,90.04
2022-09-28T19:36:23.693Z,89.42
2022-09-28T19:38:52.719Z,89.88
2022-09-28T19:41:44.186Z,89.96
2022-09-28T19:44:26.844Z,90.49
2022-09-28T19:46:58.552Z,90.58
2022-09-28T19:49:28.160Z,90.47
2022-09-28T19:54:56.681Z,89.47
2022-09-28T19:57:30.791Z,89.02
2022-09-28T20:00:02.374Z,88.79
2022-09-28T20:02:29.822Z,88.71
2022-09-28T20:04:56.824Z,88.50
2022-09-28T20:07:23.779Z,88.77
2022-09-28T20:09:50.782Z,89.24
2022-09-28T20:12:17.722Z,89.37
2022-09-28T20:14:44.660Z,89.46
2022-09-28T20:17:11.590Z,89.28
2022-09-28T20:19:38.558Z,89.52
2022-09-28T20:22:05.501Z,88.87
2022-09-28T20:24:32.997Z,89.45
2022-09-28T20:27:01.363Z,90.53
2022-09-28T20:29:29.069Z,89.67
2022-09-28T20:31:56.741Z,90.30
2022-09-28T20:34:23.706Z,89.99
2022-09-28T20:36:50.601Z,90.57
2022-09-28T20:39:17.719Z,89.61
2022-09-28T20:41:46.114Z,90.11
2022-09-28T20:44:13.315Z,90.41
2022-09-28T20:46:40.363Z,90.69
2022-09-28T20:49:07.814Z,90.67
2022-09-28T20:51:34.804Z,90.46
2022-09-28T20:54:01.807Z,90.11
2022-09-28T20:56:37.641Z,89.33
2022-09-28T20:59:11.385Z,90.17
2022-09-28T21:01:38.917Z,90.02
2022-09-28T21:04:08.123Z,90.19
2022-09-28T21:06:40.357Z,90.05
2022-09-28T21:09:10.047Z,90.70
2022-09-28T21:11:37.660Z,90.48
2022-09-28T21:14:07.127Z,92.09
2022-09-28T21:16:35.487Z,92.60
2022-09-28T21:19:02.910Z,92.51
2022-09-28T21:21:30.025Z,91.55
2022-09-28T21:23:58.255Z,93.17
2022-09-28T21:26:28.992Z,93.53
2022-09-28T21:28:58.085Z,94.28
2022-09-28T21:31:29.416Z,94.00
2022-09-28T21:33:57.725Z,93.90
2022-09-28T21:36:25.571Z,94.17
2022-09-28T21:38:54.217Z,94.64
2022-09-28T21:41:21.171Z,96.07
2022-09-28T21:43:48.071Z,95.62
2022-09-28T21:46:15.050Z,94.50
2022-09-28T21:48:42.013Z,94.41
2022-09-28T21:51:13.042Z,95.36
2022-09-28T21:53:39.952Z,96.50
2022-09-28T21:56:11.729Z,96.45
2022-09-28T21:58:39.586Z,95.54
2022-09-28T22:01:16.824Z,95.32
2022-09-28T22:03:47.899Z,95.26
2022-09-28T22:06:19.372Z,95.07
2022-09-28T22:08:48.294Z,94.51
2022-09-28T22:11:18.653Z,95.17
2022-09-28T22:13:48.862Z,95.13
2022-09-28T22:16:19.765Z,95.63
2022-09-28T22:18:47.419Z,95.49
2022-09-28T22:21:22.426Z,96.34
2022-09-28T22:23:50.021Z,97.36
2022-09-28T22:26:25.316Z,97.66
2022-09-28T22:29:05.422Z,97.31
2022-09-28T22:31:36.029Z,98.07
2022-09-28T22:34:04.146Z,98.58
2022-09-28T22:36:31.765Z,98.44
2022-09-28T22:38:59.736Z,99.00
2022-09-28T22:41:27.265Z,98.90
2022-09-28T22:43:54.813Z,99.23
2022-09-28T22:46:28.511Z,99.60
2022-09-28T22:48:58.331Z,100.00
2022-09-28T22:51:27.958Z,99.79
2022-09-28T22:53:56.547Z,99.15
2022-09-28T22:56:23.847Z,100.00
2022-09-28T22:58:50.792Z,100.00
2022-09-28T23:01:22.147Z,100.00
2022-09-28T23:03:51.026Z,100.00
2022-09-28T23:06:21.103Z,100.00
2022-09-28T23:08:50.346Z,100.00
2022-09-28T23:11:17.557Z,100.00
2022-09-28T23:13:52.385Z,100.00
2022-09-28T23:16:20.236Z,100.00
2022-09-28T23:18:49.200Z,100.00
2022-09-28T23:21:23.058Z,100.00
2022-09-28T23:23:56.767Z,100.00
2022-09-28T23:26:28.171Z,100.00
2022-09-28T23:28:56.089Z,100.00
2022-09-28T23:31:29.253Z,100.00
2022-09-28T23:34:06.483Z,100.00
2022-09-28T23:36:34.596Z,100.00
2022-09-28T23:39:01.936Z,100.00
2022-09-28T23:41:29.145Z,100.00
2022-09-28T23:43:56.278Z,100.00
2022-09-28T23:46:23.270Z,100.00
2022-09-28T23:48:50.491Z,100.00
2022-09-28T23:51:17.627Z,100.00
2022-09-28T23:53:44.859Z,100.00
2022-09-28T23:56:12.660Z,100.00
2022-09-28T23:58:39.590Z,100.00
